createdAt,value
2023-05-02T00:00:49.739Z,102140.78
2023-05-02T00:03:17.189Z,102138.13
2023-05-02T00:05:44.011Z,102135.94
2023-05-02T00:08:11.302Z,102135.41
2023-05-02T00:10:37.631Z,102136.19
2023-05-02T00:13:04.110Z,102136.19
2023-05-02T00:15:30.501Z,102139.63
2023-05-02T00:17:56.897Z,102131.66
2023-05-02T00:20:23.370Z,102142.28
2023-05-02T00:22:50.904Z,102137.75
2023-05-02T00:25:17.323Z,102139.34
2023-05-02T00:27:46.427Z,102141.72
2023-05-02T00:30:13.894Z,102142.53
2023-05-02T00:32:40.635Z,102142.22
2023-05-02T00:35:08.280Z,102148.03
2023-05-02T00:37:34.645Z,102144.31
2023-05-02T00:40:01.429Z,102149.13
2023-05-02T00:42:31.395Z,102143.53
2023-05-02T00:44:57.709Z,102140.88
2023-05-02T00:47:24.216Z,102135.56
2023-05-02T00:49:50.676Z,102144.31
2023-05-02T00:52:17.226Z,102151.72
2023-05-02T00:54:43.734Z,102152.81
2023-05-02T00:57:10.090Z,102154.97
2023-05-02T00:59:37.101Z,102157.09
2023-05-02T01:02:25.723Z,102158.69
2023-05-02T01:05:13.861Z,102159.50
2023-05-02T01:07:40.231Z,102171.50
2023-05-02T01:10:41.802Z,102174.75
2023-05-02T01:13:13.753Z,102181.91
2023-05-02T01:15:42.335Z,102168.09
2023-05-02T01:18:11.862Z,102168.69
2023-05-02T01:20:42.281Z,102164.66
2023-05-02T01:23:25.165Z,102171.84
2023-05-02T01:26:15.415Z,102177.72
2023-05-02T01:29:01.977Z,102181.28
2023-05-02T01:31:35.649Z,102180.03
2023-05-02T01:34:05.355Z,102186.19
2023-05-02T01:36:34.293Z,102191.00
2023-05-02T01:39:02.707Z,102196.41
2023-05-02T01:41:31.869Z,102194.03
2023-05-02T01:44:02.546Z,102203.88
2023-05-02T01:46:34.422Z,102198.03
2023-05-02T01:49:05.675Z,102200.97
2023-05-02T01:51:34.732Z,102207.38
2023-05-02T01:54:05.627Z,102210.59
2023-05-02T01:56:39.234Z,102213.84
2023-05-02T01:59:08.975Z,102231.66
2023-05-02T02:01:37.963Z,102229.53
2023-05-02T02:04:07.137Z,102239.41
2023-05-02T02:06:33.803Z,102235.47
2023-05-02T02:09:00.694Z,102231.47
2023-05-02T02:11:47.152Z,102232.28
2023-05-02T02:14:25.716Z,102233.09
2023-05-02T02:16:56.146Z,102228.03
2023-05-02T02:19:24.321Z,102225.66
2023-05-02T02:21:51.449Z,102236.59
2023-05-02T02:24:20.965Z,102247.22
2023-05-02T02:26:47.311Z,102252.00
2023-05-02T02:29:13.828Z,102255.75
2023-05-02T02:31:40.428Z,102265.09
2023-05-02T02:34:07.256Z,102263.22
2023-05-02T02:36:44.702Z,102267.22
2023-05-02T02:39:23.205Z,102270.94
2023-05-02T02:42:02.353Z,102271.53
2023-05-02T02:44:34.860Z,102271.00
2023-05-02T02:47:10.476Z,102283.50
2023-05-02T02:50:11.141Z,102282.19
2023-05-02T02:52:42.233Z,102278.75
2023-05-02T02:55:24.335Z,102277.13
2023-05-02T02:58:03.463Z,102286.19
2023-05-02T03:00:32.485Z,102284.34
2023-05-02T03:02:58.900Z,102285.22
2023-05-02T03:05:25.705Z,102294.22
2023-05-02T03:07:52.353Z,102292.94
2023-05-02T03:10:18.986Z,102298.25
2023-05-02T03:12:45.396Z,102296.38
2023-05-02T03:15:24.942Z,102304.06
2023-05-02T03:17:51.579Z,102308.59
2023-05-02T03:20:18.029Z,102312.03
2023-05-02T03:22:44.346Z,102314.97
2023-05-02T03:25:10.728Z,102315.56
2023-05-02T03:27:37.207Z,102312.94
2023-05-02T03:30:04.047Z,102313.72
2023-05-02T03:32:30.544Z,102323.56
2023-05-02T03:34:58.779Z,102320.09
2023-05-02T03:37:25.344Z,102332.56
2023-05-02T03:39:51.754Z,102328.63
2023-05-02T03:42:18.071Z,102333.94
2023-05-02T03:44:44.384Z,102335.00
2023-05-02T03:47:10.964Z,102340.59
2023-05-02T03:49:37.467Z,102341.13
2023-05-02T03:52:03.877Z,102339.00
2023-05-02T03:54:32.586Z,102346.19
2023-05-02T03:56:59.418Z,102347.53
2023-05-02T03:59:25.740Z,102344.63
2023-05-02T04:01:52.121Z,102347.56
2023-05-02T04:04:18.580Z,102359.28
2023-05-02T04:06:45.522Z,102357.69
2023-05-02T04:09:11.973Z,102359.00
2023-05-02T04:11:38.290Z,102361.16
2023-05-02T04:14:04.618Z,102355.06
2023-05-02T04:16:31.116Z,102366.47
2023-05-02T04:18:57.531Z,102367.25
2023-05-02T04:21:23.858Z,102364.59
2023-05-02T04:23:50.281Z,102373.91
2023-05-02T04:26:16.910Z,102374.72
2023-05-02T04:28:43.279Z,102370.72
2023-05-02T04:31:09.809Z,102378.69
2023-05-02T04:33:36.271Z,102391.19
2023-05-02T04:36:02.901Z,102392.25
2023-05-02T04:38:29.295Z,102394.38
2023-05-02T04:40:55.631Z,102401.03
2023-05-02T04:43:24.427Z,102405.25
2023-05-02T04:45:51.526Z,102414.31
2023-05-02T04:48:18.379Z,102415.66
2023-05-02T04:50:46.078Z,102420.69
2023-05-02T04:53:12.438Z,102425.22
2023-05-02T04:55:38.745Z,102427.88
2023-05-02T04:58:05.087Z,102435.84
2023-05-02T05:00:31.414Z,102440.09
2023-05-02T05:02:59.296Z,102440.59
2023-05-02T05:05:27.215Z,102441.66
2023-05-02T05:07:53.752Z,102444.88
2023-05-02T05:10:20.111Z,102448.03
2023-05-02T05:12:46.608Z,102453.84
2023-05-02T05:15:12.941Z,102457.06
2023-05-02T05:17:39.758Z,102461.31
2023-05-02T05:20:08.334Z,102463.97
2023-05-02T05:22:39.891Z,102460.50
2023-05-02T05:25:06.620Z,102469.78
2023-05-02T05:27:35.199Z,102474.56
2023-05-02T05:30:02.396Z,102474.00
2023-05-02T05:32:29.505Z,102480.09
2023-05-02T05:34:55.862Z,102477.75
2023-05-02T05:37:22.248Z,102485.47
2023-05-02T05:39:48.650Z,102491.59
2023-05-02T05:42:16.488Z,102493.97
2023-05-02T05:44:43.094Z,102495.31
2023-05-02T05:47:09.476Z,102502.50
2023-05-02T05:49:38.427Z,102512.28
2023-05-02T05:52:05.281Z,102512.28
2023-05-02T05:54:31.650Z,102518.41
2023-05-02T05:56:58.058Z,102524.75
2023-05-02T05:59:24.570Z,102517.06
2023-05-02T06:01:50.996Z,102535.66
2023-05-02T06:04:17.390Z,102540.94
2023-05-02T06:06:43.927Z,102545.47
2023-05-02T06:09:10.532Z,102537.50
2023-05-02T06:11:38.096Z,102540.38
2023-05-02T06:14:04.464Z,102548.09
2023-05-02T06:16:30.833Z,102542.78
2023-05-02T06:18:57.210Z,102557.38
2023-05-02T06:21:23.632Z,102556.56
2023-05-02T06:23:49.998Z,102563.72
2023-05-02T06:26:16.468Z,102567.41
2023-05-02T06:28:42.921Z,102573.22
2023-05-02T06:31:09.445Z,102571.34
2023-05-02T06:33:36.720Z,102571.06
2023-05-02T06:36:03.318Z,102574.22
2023-05-02T06:38:29.959Z,102582.16
2023-05-02T06:40:56.448Z,102584.28
2023-05-02T06:43:22.907Z,102585.31
2023-05-02T06:45:52.192Z,102595.44
2023-05-02T06:48:18.621Z,102598.88
2023-05-02T06:50:45.298Z,102604.22
2023-05-02T06:53:11.646Z,102614.06
2023-05-02T06:55:38.021Z,102613.59
2023-05-02T06:58:04.410Z,102630.06
2023-05-02T07:00:31.026Z,102631.13
2023-05-02T07:02:57.708Z,102631.16
2023-05-02T07:05:24.091Z,102637.53
2023-05-02T07:07:50.655Z,102636.19
2023-05-02T07:10:17.052Z,102638.56
2023-05-02T07:12:43.393Z,102648.66
2023-05-02T07:15:10.208Z,102645.50
2023-05-02T07:17:36.570Z,102644.69
2023-05-02T07:20:03.920Z,102648.16
2023-05-02T07:22:30.577Z,102651.59
2023-05-02T07:24:58.634Z,102653.94
2023-05-02T07:27:25.451Z,102666.94
2023-05-02T07:29:51.930Z,102666.69
2023-05-02T07:32:21.566Z,102664.31
2023-05-02T07:34:48.688Z,102672.28
2023-05-02T07:37:15.020Z,102679.47
2023-05-02T07:39:41.562Z,102677.88
2023-05-02T07:42:07.900Z,102672.78
2023-05-02T07:44:35.921Z,102673.06
2023-05-02T07:47:02.624Z,102674.41
2023-05-02T07:49:29.063Z,102684.22
2023-05-02T07:51:56.113Z,102692.19
2023-05-02T07:54:23.091Z,102686.84
2023-05-02T07:56:49.456Z,102688.47
2023-05-02T07:59:15.797Z,102684.72
2023-05-02T08:01:42.507Z,102691.56
2023-05-02T08:04:10.599Z,102691.03
2023-05-02T08:06:37.917Z,102700.56
2023-05-02T08:09:04.496Z,102696.53
2023-05-02T08:11:30.878Z,102702.66
2023-05-02T08:13:57.194Z,102700.03
2023-05-02T08:16:23.555Z,102701.13
2023-05-02T08:18:49.986Z,102708.09
2023-05-02T08:21:16.358Z,102713.94
2023-05-02T08:23:42.814Z,102717.69
2023-05-02T08:26:09.692Z,102716.63
2023-05-02T08:28:36.033Z,102726.69
2023-05-02T08:31:02.368Z,102729.81
2023-05-02T08:33:28.730Z,102722.34
2023-05-02T08:35:55.084Z,102723.41
2023-05-02T08:38:21.430Z,102730.03
2023-05-02T08:40:47.991Z,102725.69
2023-05-02T08:43:16.849Z,102737.59
2023-05-02T08:45:44.897Z,102738.63
2023-05-02T08:48:13.762Z,102736.69
2023-05-02T08:50:42.474Z,102739.84
2023-05-02T08:53:10.145Z,102740.59
2023-05-02T08:55:42.003Z,102756.84
2023-05-02T08:58:10.812Z,102751.94
2023-05-02T09:00:40.504Z,102761.25
2023-05-02T09:03:36.143Z,102757.41
2023-05-02T09:06:09.280Z,102762.19
2023-05-02T09:08:37.218Z,102755.00
2023-05-02T09:11:05.248Z,102766.56
2023-05-02T09:13:38.829Z,102762.03
2023-05-02T09:16:06.343Z,102769.41
2023-05-02T09:18:35.364Z,102766.03
2023-05-02T09:21:06.508Z,102769.94
2023-05-02T09:23:41.070Z,102769.00
2023-05-02T09:26:12.560Z,102767.03
2023-05-02T09:28:47.013Z,102764.28
2023-05-02T09:31:31.249Z,102777.63
2023-05-02T09:34:12.529Z,102771.78
2023-05-02T09:36:40.968Z,102773.03
2023-05-02T09:39:19.073Z,102773.06
2023-05-02T09:41:47.885Z,102782.66
2023-05-02T09:44:18.465Z,102788.38
2023-05-02T09:46:53.257Z,102787.88
2023-05-02T09:49:38.361Z,102792.19
2023-05-02T09:52:16.149Z,102796.75
2023-05-02T09:54:43.082Z,102796.13
2023-05-02T09:57:10.584Z,102795.34
2023-05-02T09:59:37.329Z,102798.94
2023-05-02T10:02:05.401Z,102798.09
2023-05-02T10:04:33.657Z,102793.13
2023-05-02T10:07:02.213Z,102788.69
2023-05-02T10:09:29.818Z,102791.13
2023-05-02T10:11:56.780Z,102786.03
2023-05-02T10:14:27.855Z,102779.13
2023-05-02T10:17:09.083Z,102780.09
2023-05-02T10:20:00.341Z,102807.63
2023-05-02T10:22:31.024Z,102808.28
2023-05-02T10:25:00.237Z,102815.63
2023-05-02T10:27:27.150Z,102819.63
2023-05-02T10:29:54.446Z,102814.84
2023-05-02T10:32:23.305Z,102828.28
2023-05-02T10:34:51.676Z,102817.13
2023-05-02T10:37:19.868Z,102818.38
2023-05-02T10:39:46.275Z,102831.41
2023-05-02T10:42:14.201Z,102830.69
2023-05-02T10:44:41.328Z,102831.22
2023-05-02T10:47:34.120Z,102818.03
2023-05-02T10:50:02.573Z,102818.91
2023-05-02T10:52:38.160Z,102828.94
2023-05-02T10:55:24.895Z,102829.94
2023-05-02T10:57:57.573Z,102827.22
2023-05-02T11:00:29.662Z,102820.25
2023-05-02T11:02:56.422Z,102822.63
2023-05-02T11:05:24.275Z,102829.94
2023-05-02T11:08:10.635Z,102829.31
2023-05-02T11:10:37.121Z,102829.72
2023-05-02T11:13:03.898Z,102835.50
2023-05-02T11:15:30.301Z,102839.38
2023-05-02T11:18:03.814Z,102841.59
2023-05-02T11:20:31.641Z,102836.69
2023-05-02T11:23:22.063Z,102823.50
2023-05-02T11:25:50.225Z,102837.06
2023-05-02T11:28:56.369Z,102842.88
2023-05-02T11:31:28.726Z,102841.94
2023-05-02T11:34:00.218Z,102845.00
2023-05-02T11:36:30.712Z,102847.59
2023-05-02T11:38:57.057Z,102848.31
2023-05-02T11:41:23.659Z,102838.94
2023-05-02T11:44:03.645Z,102832.03
2023-05-02T11:46:30.905Z,102835.91
2023-05-02T11:48:57.694Z,102839.94
2023-05-02T11:51:24.316Z,102850.31
2023-05-02T11:53:51.396Z,102843.34
2023-05-02T11:56:24.327Z,102842.75
2023-05-02T11:59:03.613Z,102843.72
2023-05-02T12:01:30.438Z,102857.44
2023-05-02T12:04:07.861Z,102858.59
2023-05-02T12:06:34.827Z,102866.22
2023-05-02T12:09:09.596Z,102874.28
2023-05-02T12:11:38.085Z,102873.47
2023-05-02T12:14:05.808Z,102866.78
2023-05-02T12:16:32.487Z,102865.91
2023-05-02T12:19:01.229Z,102872.84
2023-05-02T12:21:29.864Z,102869.09
2023-05-02T12:23:57.254Z,102870.13
2023-05-02T12:26:27.445Z,102884.69
2023-05-02T12:28:55.182Z,102878.75
2023-05-02T12:31:22.060Z,102877.06
2023-05-02T12:33:51.007Z,102885.19
2023-05-02T12:36:19.134Z,102882.41
2023-05-02T12:38:54.940Z,102893.34
2023-05-02T12:41:44.730Z,102895.13
2023-05-02T12:44:11.210Z,102900.78
2023-05-02T12:46:37.727Z,102898.28
2023-05-02T12:49:06.023Z,102907.81
2023-05-02T12:51:32.998Z,102904.84
2023-05-02T12:53:59.680Z,102906.94
2023-05-02T12:56:31.883Z,102907.94
2023-05-02T12:59:05.252Z,102909.50
2023-05-02T13:01:34.149Z,102908.41
2023-05-02T13:04:00.767Z,102913.94
2023-05-02T13:06:27.573Z,102905.72
2023-05-02T13:08:55.026Z,102903.44
2023-05-02T13:11:21.456Z,102908.78
2023-05-02T13:13:47.876Z,102909.03
2023-05-02T13:16:14.370Z,102909.69
2023-05-02T13:18:40.866Z,102901.16
2023-05-02T13:21:07.561Z,102901.97
2023-05-02T13:23:33.945Z,102906.25
2023-05-02T13:26:00.314Z,102902.63
2023-05-02T13:28:26.813Z,102912.06
2023-05-02T13:30:53.185Z,102910.91
2023-05-02T13:33:19.674Z,102911.19
2023-05-02T13:35:46.451Z,102916.53
2023-05-02T13:38:12.937Z,102911.72
2023-05-02T13:40:39.339Z,102913.53
2023-05-02T13:43:05.689Z,102916.09
2023-05-02T13:45:32.174Z,102916.53
2023-05-02T13:47:58.591Z,102915.31
2023-05-02T13:50:25.011Z,102908.09
2023-05-02T13:52:51.406Z,102914.34
2023-05-02T13:55:17.898Z,102918.88
2023-05-02T13:57:44.553Z,102928.34
2023-05-02T14:00:11.388Z,102929.19
2023-05-02T14:02:38.942Z,102922.09
2023-05-02T14:05:06.149Z,102927.06
2023-05-02T14:07:32.561Z,102933.31
2023-05-02T14:09:59.001Z,102927.88
2023-05-02T14:12:25.782Z,102923.03
2023-05-02T14:14:52.458Z,102930.47
2023-05-02T14:17:18.975Z,102935.31
2023-05-02T14:19:45.458Z,102930.25
2023-05-02T14:22:11.798Z,102926.88
2023-05-02T14:24:38.124Z,102921.13
2023-05-02T14:27:04.739Z,102926.78
2023-05-02T14:29:31.073Z,102922.59
2023-05-02T14:31:57.415Z,102928.56
2023-05-02T14:34:26.792Z,102927.84
2023-05-02T14:36:53.249Z,102934.38
2023-05-02T14:39:19.617Z,102933.56
2023-05-02T14:41:46.044Z,102940.56
2023-05-02T14:44:12.376Z,102945.44
2023-05-02T14:46:39.550Z,102938.31
2023-05-02T14:49:05.924Z,102933.72
2023-05-02T14:51:32.282Z,102937.56
2023-05-02T14:53:58.606Z,102932.78
2023-05-02T14:56:25.756Z,102942.13
2023-05-02T14:58:52.115Z,102933.19
2023-05-02T15:01:20.240Z,102933.09
2023-05-02T15:04:04.142Z,102931.75
2023-05-02T15:06:32.623Z,102936.41
2023-05-02T15:08:59.228Z,102926.47
2023-05-02T15:11:25.763Z,102925.72
2023-05-02T15:13:52.089Z,102917.44
2023-05-02T15:16:18.528Z,102918.63
2023-05-02T15:18:45.286Z,102923.22
2023-05-02T15:21:12.609Z,102925.72
2023-05-02T15:23:39.250Z,102925.81
2023-05-02T15:26:06.364Z,102934.03
2023-05-02T15:28:32.713Z,102928.94
2023-05-02T15:30:59.237Z,102924.69
2023-05-02T15:33:25.708Z,102920.81
2023-05-02T15:35:54.536Z,102931.34
2023-05-02T15:38:21.002Z,102931.91
2023-05-02T15:40:55.178Z,102935.59
2023-05-02T15:43:21.574Z,102934.03
2023-05-02T15:45:55.550Z,102926.31
2023-05-02T15:48:22.630Z,102932.53
2023-05-02T15:50:49.129Z,102927.56
2023-05-02T15:53:16.506Z,102934.13
2023-05-02T15:55:43.632Z,102934.81
2023-05-02T15:58:10.032Z,102937.78
2023-05-02T16:00:36.413Z,102935.25
2023-05-02T16:03:04.119Z,102932.53
2023-05-02T16:05:30.899Z,102932.78
2023-05-02T16:07:57.818Z,102936.47
2023-05-02T16:10:24.337Z,102939.16
2023-05-02T16:12:50.973Z,102944.38
2023-05-02T16:15:17.329Z,102940.50
2023-05-02T16:17:43.925Z,102941.66
2023-05-02T16:20:12.979Z,102941.81
2023-05-02T16:22:39.616Z,102943.63
2023-05-02T16:25:06.347Z,102939.22
2023-05-02T16:27:33.222Z,102955.63
2023-05-02T16:29:59.982Z,102947.09
2023-05-02T16:32:28.058Z,102950.34
2023-05-02T16:34:54.474Z,102948.56
2023-05-02T16:37:20.922Z,102943.09
2023-05-02T16:39:47.282Z,102946.38
2023-05-02T16:42:13.607Z,102946.19
2023-05-02T16:44:40.187Z,102942.22
2023-05-02T16:47:07.915Z,102940.34
2023-05-02T16:49:34.479Z,102941.13
2023-05-02T16:52:00.811Z,102940.94
2023-05-02T16:54:27.210Z,102947.81
2023-05-02T16:56:55.623Z,102948.59
2023-05-02T16:59:22.225Z,102956.31
2023-05-02T17:01:49.666Z,102950.44
2023-05-02T17:04:16.440Z,102950.63
2023-05-02T17:06:42.885Z,102956.31
2023-05-02T17:09:09.645Z,102945.50
2023-05-02T17:11:36.204Z,102956.19
2023-05-02T17:14:02.570Z,102955.09
2023-05-02T17:16:28.939Z,102962.88
2023-05-02T17:18:55.423Z,102970.88
2023-05-02T17:21:21.760Z,102964.75
2023-05-02T17:23:48.337Z,102956.28
2023-05-02T17:26:15.504Z,102967.53
2023-05-02T17:28:44.738Z,102957.09
2023-05-02T17:31:11.646Z,102954.91
2023-05-02T17:33:38.057Z,102956.50
2023-05-02T17:36:04.897Z,102955.28
2023-05-02T17:38:31.390Z,102958.34
2023-05-02T17:40:57.707Z,102956.00
2023-05-02T17:43:24.034Z,102961.41
2023-05-02T17:45:50.571Z,102966.81
2023-05-02T17:48:17.160Z,102969.03
2023-05-02T17:50:44.041Z,102977.56
2023-05-02T17:53:10.575Z,102975.47
2023-05-02T17:55:37.949Z,102973.59
2023-05-02T17:58:04.687Z,102971.28
2023-05-02T18:00:31.060Z,102969.47
2023-05-02T18:02:57.492Z,102970.81
2023-05-02T18:05:26.145Z,102975.34
2023-05-02T18:07:53.046Z,102973.81
2023-05-02T18:10:19.518Z,102977.56
2023-05-02T18:12:45.900Z,102984.78
2023-05-02T18:15:12.330Z,102995.22
2023-05-02T18:17:38.792Z,102995.25
2023-05-02T18:20:06.915Z,102987.84
2023-05-02T18:22:33.708Z,102994.00
2023-05-02T18:25:00.293Z,102991.06
2023-05-02T18:27:26.898Z,102989.75
2023-05-02T18:29:54.385Z,102990.56
2023-05-02T18:32:21.503Z,102999.63
2023-05-02T18:34:48.278Z,102995.13
2023-05-02T18:37:14.748Z,102990.59
2023-05-02T18:39:41.110Z,102993.81
2023-05-02T18:42:08.271Z,102991.69
2023-05-02T18:44:34.709Z,103002.34
2023-05-02T18:47:01.081Z,103008.44
2023-05-02T18:49:27.483Z,103001.78
2023-05-02T18:51:54.673Z,103007.38
2023-05-02T18:54:23.084Z,103004.69
2023-05-02T18:56:49.453Z,103010.78
2023-05-02T18:59:16.889Z,103010.22
2023-05-02T19:01:45.441Z,103011.78
2023-05-02T19:04:11.847Z,103014.44
2023-05-02T19:06:38.286Z,103020.81
2023-05-02T19:09:04.686Z,103018.38
2023-05-02T19:11:31.089Z,103026.63
2023-05-02T19:13:59.782Z,103020.47
2023-05-02T19:16:27.482Z,103025.47
2023-05-02T19:18:55.742Z,103030.22
2023-05-02T19:21:22.126Z,103031.25
2023-05-02T19:23:49.866Z,103029.31
2023-05-02T19:26:17.629Z,103029.56
2023-05-02T19:28:44.583Z,103022.34
2023-05-02T19:31:13.001Z,103037.44
2023-05-02T19:33:40.354Z,103038.47
2023-05-02T19:36:07.572Z,103032.63
2023-05-02T19:38:34.689Z,103029.97
2023-05-02T19:41:01.893Z,103031.00
2023-05-02T19:43:28.517Z,103036.56
2023-05-02T19:45:54.943Z,103025.66
2023-05-02T19:48:22.824Z,103029.91
2023-05-02T19:50:49.616Z,103044.22
2023-05-02T19:53:15.966Z,103044.22
2023-05-02T19:55:42.320Z,103038.31
2023-05-02T19:58:08.816Z,103045.75
2023-05-02T20:00:35.356Z,103052.06
2023-05-02T20:03:02.163Z,103039.75
2023-05-02T20:05:28.688Z,103046.38
2023-05-02T20:07:55.127Z,103046.03
2023-05-02T20:10:21.539Z,103067.75
2023-05-02T20:12:47.874Z,103059.72
2023-05-02T20:15:15.939Z,103071.91
2023-05-02T20:17:42.786Z,103068.41
2023-05-02T20:20:11.328Z,103078.97
2023-05-02T20:22:40.570Z,103073.88
2023-05-02T20:25:09.137Z,103068.34
2023-05-02T20:27:35.565Z,103066.72
2023-05-02T20:30:02.212Z,103065.84
2023-05-02T20:32:28.959Z,103073.81
2023-05-02T20:34:55.666Z,103082.78
2023-05-02T20:37:22.419Z,103080.00
2023-05-02T20:39:48.726Z,103083.69
2023-05-02T20:42:23.113Z,103082.03
2023-05-02T20:45:00.850Z,103086.25
2023-05-02T20:47:29.163Z,103098.91
2023-05-02T20:49:56.411Z,103105.19
2023-05-02T20:52:23.422Z,103099.09
2023-05-02T20:54:53.555Z,103106.75
2023-05-02T20:57:19.932Z,103102.19
2023-05-02T20:59:46.734Z,103098.69
2023-05-02T21:02:13.172Z,103104.19
2023-05-02T21:04:41.898Z,103094.66
2023-05-02T21:07:09.260Z,103095.63
2023-05-02T21:09:35.631Z,103102.16
2023-05-02T21:12:02.472Z,103089.91
2023-05-02T21:14:28.850Z,103094.94
2023-05-02T21:16:55.234Z,103090.91
2023-05-02T21:19:21.649Z,103088.22
2023-05-02T21:21:48.125Z,103097.69
2023-05-02T21:24:14.869Z,103093.91
2023-05-02T21:26:41.527Z,103085.34
2023-05-02T21:29:07.960Z,103095.06
2023-05-02T21:31:34.405Z,103083.66
2023-05-02T21:34:00.751Z,103087.28
2023-05-02T21:36:27.334Z,103093.56
2023-05-02T21:38:53.894Z,103088.72
2023-05-02T21:41:20.732Z,103086.53
2023-05-02T21:43:47.180Z,103090.41
2023-05-02T21:46:13.661Z,103089.53
2023-05-02T21:48:40.120Z,103085.19
2023-05-02T21:51:08.321Z,103093.91
2023-05-02T21:53:34.822Z,103091.44
2023-05-02T21:56:01.138Z,103088.38
2023-05-02T21:58:28.235Z,103095.09
2023-05-02T22:00:54.694Z,103096.16
2023-05-02T22:03:21.133Z,103104.78
2023-05-02T22:05:49.748Z,103092.50
2023-05-02T22:08:16.868Z,103091.63
2023-05-02T22:10:43.881Z,103087.84
2023-05-02T22:13:12.254Z,103083.50
2023-05-02T22:15:48.357Z,103081.00
2023-05-02T22:18:16.685Z,103076.66
2023-05-02T22:20:44.529Z,103073.41
2023-05-02T22:23:11.957Z,103073.09
2023-05-02T22:25:41.134Z,103074.38
2023-05-02T22:28:10.992Z,103069.31
2023-05-02T22:30:38.427Z,103073.22
2023-05-02T22:33:04.979Z,103077.69
2023-05-02T22:35:31.360Z,103073.47
2023-05-02T22:37:59.671Z,103080.25
2023-05-02T22:40:26.013Z,103081.53
2023-05-02T22:42:52.338Z,103079.34
2023-05-02T22:45:19.033Z,103075.56
2023-05-02T22:47:45.819Z,103075.69
2023-05-02T22:50:12.936Z,103071.69
2023-05-02T22:52:39.748Z,103078.47
2023-05-02T22:55:09.052Z,103077.91
2023-05-02T22:57:36.188Z,103084.13
2023-05-02T23:00:05.170Z,103088.78
2023-05-02T23:02:31.946Z,103081.31
2023-05-02T23:04:58.755Z,103082.38
2023-05-02T23:07:25.396Z,103094.28
2023-05-02T23:09:51.744Z,103087.97
2023-05-02T23:12:18.091Z,103088.22
2023-05-02T23:14:44.590Z,103090.84
2023-05-02T23:17:10.988Z,103091.53
2023-05-02T23:19:37.311Z,103102.78
2023-05-02T23:22:03.711Z,103100.84
2023-05-02T23:24:30.052Z,103098.53
2023-05-02T23:26:56.553Z,103096.84
2023-05-02T23:29:23.150Z,103093.75
2023-05-02T23:31:52.329Z,103088.09
2023-05-02T23:34:19.406Z,103091.44
2023-05-02T23:36:45.830Z,103100.50
2023-05-02T23:39:12.237Z,103109.53
2023-05-02T23:41:38.676Z,103111.16
2023-05-02T23:44:05.632Z,103117.56
2023-05-02T23:46:32.006Z,103113.56
2023-05-02T23:48:58.406Z,103110.13
2023-05-02T23:51:24.785Z,103118.47
2023-05-02T23:53:51.105Z,103127.91
2023-05-02T23:56:17.435Z,103136.59
2023-05-02T23:58:44.246Z,103133.69
